createdAt,value
2023-05-10T00:00:00.298Z,983.50
2023-05-10T00:00:59.910Z,983.53
2023-05-10T00:01:59.949Z,983.50
2023-05-10T00:02:59.983Z,983.45
2023-05-10T00:03:59.945Z,983.52
2023-05-10T00:04:59.859Z,983.47
2023-05-10T00:05:59.896Z,983.51
2023-05-10T00:07:00.463Z,983.47
2023-05-10T00:07:59.826Z,983.48
2023-05-10T00:08:59.818Z,983.47
2023-05-10T00:09:59.793Z,983.41
2023-05-10T00:10:59.825Z,983.47
2023-05-10T00:11:59.768Z,983.40
2023-05-10T00:13:00.145Z,983.43
2023-05-10T00:13:59.761Z,983.46
2023-05-10T00:14:59.738Z,983.45
2023-05-10T00:16:00.574Z,983.48
2023-05-10T00:16:59.812Z,983.42
2023-05-10T00:17:59.839Z,983.37
2023-05-10T00:18:59.717Z,983.38
2023-05-10T00:19:59.728Z,983.41
2023-05-10T00:20:59.659Z,983.39
2023-05-10T00:21:59.676Z,983.32
2023-05-10T00:22:59.668Z,983.35
2023-05-10T00:23:59.647Z,983.32
2023-05-10T00:24:59.693Z,983.40
2023-05-10T00:25:59.652Z,983.37
2023-05-10T00:26:59.618Z,983.31
2023-05-10T00:27:59.626Z,983.34
2023-05-10T00:28:59.629Z,983.32
2023-05-10T00:29:59.573Z,983.30
2023-05-10T00:30:59.583Z,983.34
2023-05-10T00:31:59.649Z,983.30
2023-05-10T00:32:59.604Z,983.29
2023-05-10T00:33:59.554Z,983.33
2023-05-10T00:34:59.520Z,983.37
2023-05-10T00:35:59.549Z,983.32
2023-05-10T00:36:59.502Z,983.23
2023-05-10T00:37:59.515Z,983.31
2023-05-10T00:38:59.494Z,983.31
2023-05-10T00:39:59.484Z,983.26
2023-05-10T00:41:31.888Z,983.31
2023-05-10T00:42:33.944Z,983.26
2023-05-10T00:42:59.456Z,983.25
2023-05-10T00:43:59.546Z,983.25
2023-05-10T00:44:59.451Z,983.34
2023-05-10T00:45:59.466Z,983.27
2023-05-10T00:46:59.482Z,983.24
2023-05-10T00:47:59.392Z,983.22
2023-05-10T00:48:59.362Z,983.28
2023-05-10T00:50:00.063Z,983.24
2023-05-10T00:50:59.325Z,983.27
2023-05-10T00:51:59.308Z,983.22
2023-05-10T00:52:59.293Z,983.20
2023-05-10T00:53:59.339Z,983.20
2023-05-10T00:55:00.016Z,983.24
2023-05-10T00:55:59.267Z,983.21
2023-05-10T00:56:59.250Z,983.27
2023-05-10T00:57:59.218Z,983.31
2023-05-10T00:58:59.451Z,983.25
2023-05-10T00:59:59.223Z,983.27
2023-05-10T01:00:59.252Z,983.27
2023-05-10T01:01:59.227Z,983.26
2023-05-10T01:02:59.276Z,983.25
2023-05-10T01:03:59.143Z,983.24
2023-05-10T01:04:59.235Z,983.26
2023-05-10T01:05:59.138Z,983.21
2023-05-10T01:06:59.167Z,983.23
2023-05-10T01:07:59.140Z,983.21
2023-05-10T01:08:59.091Z,983.19
2023-05-10T01:09:59.153Z,983.24
2023-05-10T01:10:59.093Z,983.21
2023-05-10T01:11:59.078Z,983.20
2023-05-10T01:12:59.149Z,983.15
2023-05-10T01:13:59.084Z,983.16
2023-05-10T01:14:59.039Z,983.17
2023-05-10T01:15:59.076Z,983.11
2023-05-10T01:16:58.995Z,983.15
2023-05-10T01:17:59.089Z,983.09
2023-05-10T01:18:58.981Z,983.16
2023-05-10T01:19:59.010Z,983.17
2023-05-10T01:20:58.984Z,983.17
2023-05-10T01:21:58.979Z,983.19
2023-05-10T01:22:59.083Z,983.19
2023-05-10T01:23:58.952Z,983.12
2023-05-10T01:24:58.902Z,983.17
2023-05-10T01:25:58.943Z,983.15
2023-05-10T01:26:58.981Z,983.21
2023-05-10T01:27:58.911Z,983.18
2023-05-10T01:28:58.849Z,983.19
2023-05-10T01:30:21.820Z,983.15
2023-05-10T01:31:00.905Z,983.22
2023-05-10T01:31:58.885Z,983.18
2023-05-10T01:32:58.837Z,983.21
2023-05-10T01:33:58.932Z,983.19
2023-05-10T01:34:58.857Z,983.21
2023-05-10T01:35:58.794Z,983.15
2023-05-10T01:36:58.802Z,983.21
2023-05-10T01:37:58.869Z,983.20
2023-05-10T01:38:58.805Z,983.19
2023-05-10T01:39:58.758Z,983.26
2023-05-10T01:40:58.757Z,983.23
2023-05-10T01:41:58.697Z,983.23
2023-05-10T01:42:58.742Z,983.22
2023-05-10T01:43:59.730Z,983.21
2023-05-10T01:44:58.689Z,983.16
2023-05-10T01:45:58.673Z,983.18
2023-05-10T01:46:58.716Z,983.17
2023-05-10T01:47:58.654Z,983.20
2023-05-10T01:48:58.672Z,983.23
2023-05-10T01:49:58.655Z,983.18
2023-05-10T01:50:58.608Z,983.16
2023-05-10T01:51:58.584Z,983.18
2023-05-10T01:52:58.576Z,983.17
2023-05-10T01:53:58.591Z,983.17
2023-05-10T01:54:58.566Z,983.19
2023-05-10T01:55:58.586Z,983.19
2023-05-10T01:56:58.542Z,983.16
2023-05-10T01:57:58.531Z,983.18
2023-05-10T01:58:58.517Z,983.15
2023-05-10T01:59:58.526Z,983.19
2023-05-10T02:00:58.790Z,983.20
2023-05-10T02:01:58.497Z,983.10
2023-05-10T02:02:58.520Z,983.11
2023-05-10T02:03:58.545Z,983.14
2023-05-10T02:04:58.441Z,983.17
2023-05-10T02:05:58.638Z,983.13
2023-05-10T02:06:58.437Z,983.18
2023-05-10T02:07:59.387Z,983.12
2023-05-10T02:08:58.407Z,983.11
2023-05-10T02:09:58.480Z,983.15
2023-05-10T02:10:58.404Z,983.18
2023-05-10T02:11:59.402Z,983.13
2023-05-10T02:12:58.424Z,983.18
2023-05-10T02:13:58.441Z,983.18
2023-05-10T02:14:58.387Z,983.18
2023-05-10T02:15:58.373Z,983.20
2023-05-10T02:16:58.443Z,983.24
2023-05-10T02:17:58.406Z,983.18
2023-05-10T02:18:58.331Z,983.14
2023-05-10T02:19:58.409Z,983.20
2023-05-10T02:20:58.363Z,983.19
2023-05-10T02:21:58.332Z,983.21
2023-05-10T02:22:58.327Z,983.23
2023-05-10T02:23:58.289Z,983.25
2023-05-10T02:24:58.355Z,983.23
2023-05-10T02:25:58.432Z,983.26
2023-05-10T02:26:58.265Z,983.30
2023-05-10T02:27:58.237Z,983.25
2023-05-10T02:28:58.310Z,983.26
2023-05-10T02:29:58.247Z,983.27
2023-05-10T02:30:58.192Z,983.26
2023-05-10T02:31:58.271Z,983.27
2023-05-10T02:32:58.216Z,983.32
2023-05-10T02:33:58.200Z,983.32
2023-05-10T02:34:58.220Z,983.29
2023-05-10T02:35:58.188Z,983.33
2023-05-10T02:36:58.101Z,983.28
2023-05-10T02:37:58.129Z,983.21
2023-05-10T02:38:58.135Z,983.31
2023-05-10T02:39:58.114Z,983.32
2023-05-10T02:40:58.106Z,983.35
2023-05-10T02:41:58.110Z,983.36
2023-05-10T02:42:58.126Z,983.34
2023-05-10T02:43:58.060Z,983.35
2023-05-10T02:44:58.065Z,983.33
2023-05-10T02:45:58.093Z,983.28
2023-05-10T02:46:58.054Z,983.34
2023-05-10T02:47:58.112Z,983.31
2023-05-10T02:48:58.041Z,983.31
2023-05-10T02:49:58.036Z,983.26
2023-05-10T02:50:57.989Z,983.29
2023-05-10T02:51:57.955Z,983.27
2023-05-10T02:52:58.005Z,983.43
2023-05-10T02:53:58.023Z,983.42
2023-05-10T02:54:57.974Z,983.39
2023-05-10T02:55:57.981Z,983.41
2023-05-10T02:56:57.915Z,983.37
2023-05-10T02:57:57.902Z,983.36
2023-05-10T02:58:57.938Z,983.35
2023-05-10T02:59:57.953Z,983.39
2023-05-10T03:00:57.911Z,983.39
2023-05-10T03:01:57.967Z,983.38
2023-05-10T03:02:57.934Z,983.37
2023-05-10T03:03:57.948Z,983.36
2023-05-10T03:04:57.979Z,983.37
2023-05-10T03:05:57.885Z,983.36
2023-05-10T03:06:57.801Z,983.36
2023-05-10T03:07:57.820Z,983.39
2023-05-10T03:08:57.980Z,983.34
2023-05-10T03:09:57.805Z,983.36
2023-05-10T03:10:57.831Z,983.33
2023-05-10T03:11:57.768Z,983.38
2023-05-10T03:12:57.769Z,983.36
2023-05-10T03:13:57.728Z,983.37
2023-05-10T03:14:57.822Z,983.35
2023-05-10T03:15:57.781Z,983.36
2023-05-10T03:16:57.716Z,983.36
2023-05-10T03:17:57.729Z,983.31
2023-05-10T03:18:57.745Z,983.35
2023-05-10T03:19:57.704Z,983.35
2023-05-10T03:20:57.721Z,983.26
2023-05-10T03:21:57.668Z,983.24
2023-05-10T03:22:57.618Z,983.38
2023-05-10T03:23:57.639Z,983.36
2023-05-10T03:24:57.630Z,983.39
2023-05-10T03:25:57.645Z,983.34
2023-05-10T03:26:57.580Z,983.38
2023-05-10T03:27:57.666Z,983.39
2023-05-10T03:28:57.574Z,983.34
2023-05-10T03:29:57.684Z,983.41
2023-05-10T03:30:57.788Z,983.40
2023-05-10T03:31:57.643Z,983.36
2023-05-10T03:32:58.558Z,983.46
2023-05-10T03:33:57.629Z,983.46
2023-05-10T03:34:57.564Z,983.48
2023-05-10T03:35:57.556Z,983.50
2023-05-10T03:37:31.665Z,983.53
2023-05-10T03:37:57.591Z,983.58
2023-05-10T03:38:57.520Z,983.60
2023-05-10T03:39:57.562Z,983.61
2023-05-10T03:40:57.517Z,983.62
2023-05-10T03:41:57.470Z,983.61
2023-05-10T03:42:57.534Z,983.64
2023-05-10T03:43:57.460Z,983.65
2023-05-10T03:44:57.522Z,983.71
2023-05-10T03:45:57.464Z,983.65
2023-05-10T03:46:57.487Z,983.62
2023-05-10T03:47:57.510Z,983.60
2023-05-10T03:48:57.435Z,983.57
2023-05-10T03:49:57.396Z,983.65
2023-05-10T03:50:57.419Z,983.69
2023-05-10T03:51:57.438Z,983.69
2023-05-10T03:52:57.460Z,983.67
2023-05-10T03:53:57.430Z,983.70
2023-05-10T03:54:57.350Z,983.73
2023-05-10T03:55:57.346Z,983.75
2023-05-10T03:56:57.402Z,983.72
2023-05-10T03:57:57.361Z,983.77
2023-05-10T03:58:57.302Z,983.76
2023-05-10T03:59:57.309Z,983.77
2023-05-10T04:00:57.302Z,983.88
2023-05-10T04:01:57.297Z,983.79
2023-05-10T04:02:57.406Z,983.79
2023-05-10T04:03:57.529Z,983.81
2023-05-10T04:04:57.243Z,983.75
2023-05-10T04:05:57.392Z,983.82
2023-05-10T04:06:57.260Z,983.77
2023-05-10T04:07:57.233Z,983.90
2023-05-10T04:08:57.227Z,983.77
2023-05-10T04:09:57.928Z,983.87
2023-05-10T04:10:57.233Z,983.85
2023-05-10T04:11:57.178Z,983.87
2023-05-10T04:12:57.224Z,983.83
2023-05-10T04:13:57.168Z,983.86
2023-05-10T04:14:57.165Z,983.92
2023-05-10T04:15:57.915Z,983.91
2023-05-10T04:16:57.200Z,983.91
2023-05-10T04:17:57.162Z,983.91
2023-05-10T04:18:57.130Z,983.95
2023-05-10T04:19:57.085Z,983.98
2023-05-10T04:20:57.108Z,983.97
2023-05-10T04:21:57.941Z,983.97
2023-05-10T04:22:57.056Z,984.01
2023-05-10T04:23:57.311Z,984.00
2023-05-10T04:24:58.069Z,983.97
2023-05-10T04:25:57.176Z,984.02
2023-05-10T04:26:57.867Z,984.03
2023-05-10T04:27:58.152Z,984.04
2023-05-10T04:28:57.155Z,983.99
2023-05-10T04:29:57.029Z,984.03
2023-05-10T04:30:57.052Z,984.06
2023-05-10T04:31:57.027Z,984.07
2023-05-10T04:32:57.077Z,984.10
2023-05-10T04:33:57.021Z,984.05
2023-05-10T04:34:56.964Z,984.06
2023-05-10T04:35:57.104Z,984.08
2023-05-10T04:36:56.960Z,984.10
2023-05-10T04:37:57.114Z,984.09
2023-05-10T04:38:56.934Z,984.13
2023-05-10T04:39:57.541Z,984.16
2023-05-10T04:40:56.953Z,984.16
2023-05-10T04:41:56.893Z,984.12
2023-05-10T04:42:56.926Z,984.12
2023-05-10T04:43:56.830Z,984.18
2023-05-10T04:44:56.871Z,984.13
2023-05-10T04:45:56.866Z,984.19
2023-05-10T04:46:56.894Z,984.17
2023-05-10T04:47:56.821Z,984.16
2023-05-10T04:48:56.759Z,984.27
2023-05-10T04:49:56.803Z,984.21
2023-05-10T04:50:56.767Z,984.26
2023-05-10T04:51:56.743Z,984.22
2023-05-10T04:52:56.787Z,984.23
2023-05-10T04:54:05.871Z,984.23
2023-05-10T04:54:58.764Z,984.19
2023-05-10T04:55:56.759Z,984.28
2023-05-10T04:56:56.781Z,984.28
2023-05-10T04:57:56.743Z,984.31
2023-05-10T04:58:56.697Z,984.29
2023-05-10T04:59:56.741Z,984.25
2023-05-10T05:00:56.880Z,984.30
2023-05-10T05:01:56.674Z,984.35
2023-05-10T05:02:56.723Z,984.34
2023-05-10T05:03:56.889Z,984.34
2023-05-10T05:04:56.664Z,984.46
2023-05-10T05:05:56.675Z,984.43
2023-05-10T05:06:56.649Z,984.44
2023-05-10T05:07:56.612Z,984.48
2023-05-10T05:08:56.670Z,984.46
2023-05-10T05:09:56.697Z,984.48
2023-05-10T05:10:56.626Z,984.48
2023-05-10T05:11:56.562Z,984.46
2023-05-10T05:12:56.602Z,984.48
2023-05-10T05:13:56.496Z,984.52
2023-05-10T05:14:56.623Z,984.47
2023-05-10T05:15:56.617Z,984.51
2023-05-10T05:16:56.493Z,984.48
2023-05-10T05:17:56.524Z,984.50
2023-05-10T05:18:56.512Z,984.52
2023-05-10T05:19:56.487Z,984.49
2023-05-10T05:20:56.469Z,984.57
2023-05-10T05:21:56.428Z,984.57
2023-05-10T05:22:56.578Z,984.56
2023-05-10T05:23:56.402Z,984.61
2023-05-10T05:24:56.403Z,984.58
2023-05-10T05:25:56.373Z,984.63
2023-05-10T05:26:56.428Z,984.67
2023-05-10T05:27:56.431Z,984.71
2023-05-10T05:28:56.378Z,984.72
2023-05-10T05:29:56.348Z,984.73
2023-05-10T05:30:56.372Z,984.74
2023-05-10T05:31:56.389Z,984.76
2023-05-10T05:32:56.369Z,984.77
2023-05-10T05:33:56.311Z,984.80
2023-05-10T05:34:56.329Z,984.79
2023-05-10T05:35:56.328Z,984.80
2023-05-10T05:36:56.278Z,984.82
2023-05-10T05:37:56.225Z,984.85
2023-05-10T05:38:56.312Z,984.85
2023-05-10T05:39:56.305Z,984.86
2023-05-10T05:40:56.241Z,984.85
2023-05-10T05:41:56.226Z,984.88
2023-05-10T05:42:56.237Z,984.85
2023-05-10T05:43:56.228Z,984.91
2023-05-10T05:44:56.193Z,984.98
2023-05-10T05:45:56.279Z,984.92
2023-05-10T05:46:57.025Z,984.99
2023-05-10T05:47:56.261Z,985.00
2023-05-10T05:48:56.147Z,985.04
2023-05-10T05:49:56.129Z,985.03
2023-05-10T05:50:56.135Z,985.01
2023-05-10T05:51:56.093Z,985.04
2023-05-10T05:52:56.104Z,985.07
2023-05-10T05:53:56.132Z,985.05
2023-05-10T05:54:57.011Z,985.05
2023-05-10T05:55:56.064Z,985.00
2023-05-10T05:56:56.115Z,984.99
2023-05-10T05:57:56.085Z,985.04
2023-05-10T05:58:56.079Z,985.06
2023-05-10T05:59:56.088Z,985.02
2023-05-10T06:00:55.995Z,985.05
2023-05-10T06:01:56.058Z,985.02
2023-05-10T06:02:56.101Z,985.10
2023-05-10T06:03:56.217Z,985.04
2023-05-10T06:04:55.986Z,985.07
2023-05-10T06:05:56.030Z,985.11
2023-05-10T06:06:55.981Z,985.09
2023-05-10T06:07:56.085Z,985.12
2023-05-10T06:08:56.465Z,985.14
2023-05-10T06:09:55.947Z,985.15
2023-05-10T06:10:55.988Z,985.14
2023-05-10T06:11:55.903Z,985.17
2023-05-10T06:12:55.987Z,985.20
2023-05-10T06:13:56.026Z,985.20
2023-05-10T06:14:55.937Z,985.20
2023-05-10T06:15:55.966Z,985.19
2023-05-10T06:16:56.045Z,985.21
2023-05-10T06:17:55.895Z,985.27
2023-05-10T06:18:55.886Z,985.23
2023-05-10T06:19:55.888Z,985.23
2023-05-10T06:20:55.871Z,985.29
2023-05-10T06:21:55.850Z,985.33
2023-05-10T06:22:55.892Z,985.36
2023-05-10T06:23:55.791Z,985.29
2023-05-10T06:24:55.840Z,985.30
2023-05-10T06:25:55.829Z,985.33
2023-05-10T06:26:55.763Z,985.34
2023-05-10T06:28:29.083Z,985.34
2023-05-10T06:29:28.242Z,985.34
2023-05-10T06:30:02.168Z,985.38
2023-05-10T06:30:57.776Z,985.37
2023-05-10T06:31:55.961Z,985.43
2023-05-10T06:32:55.740Z,985.35
2023-05-10T06:33:56.832Z,985.37
2023-05-10T06:34:56.931Z,985.35
2023-05-10T06:35:55.706Z,985.40
2023-05-10T06:36:55.666Z,985.41
2023-05-10T06:37:55.653Z,985.38
2023-05-10T06:38:55.654Z,985.45
2023-05-10T06:39:55.642Z,985.42
2023-05-10T06:40:55.771Z,985.42
2023-05-10T06:41:56.657Z,985.38
2023-05-10T06:42:55.588Z,985.44
2023-05-10T06:43:55.576Z,985.43
2023-05-10T06:44:55.607Z,985.48
2023-05-10T06:45:55.677Z,985.51
2023-05-10T06:46:55.604Z,985.46
2023-05-10T06:47:55.615Z,985.46
2023-05-10T06:48:55.546Z,985.47
2023-05-10T06:49:55.584Z,985.49
2023-05-10T06:50:55.531Z,985.50
2023-05-10T06:51:55.507Z,985.52
2023-05-10T06:52:55.496Z,985.49
2023-05-10T06:53:55.522Z,985.56
2023-05-10T06:54:55.725Z,985.56
2023-05-10T06:55:55.495Z,985.54
2023-05-10T06:56:55.471Z,985.49
2023-05-10T06:57:55.561Z,985.53
2023-05-10T06:58:56.458Z,985.58
2023-05-10T06:59:55.446Z,985.56
2023-05-10T07:00:55.505Z,985.58
2023-05-10T07:01:55.526Z,985.65
2023-05-10T07:02:55.446Z,985.62
2023-05-10T07:03:55.423Z,985.65
2023-05-10T07:04:55.514Z,985.58
2023-05-10T07:05:55.411Z,985.62
2023-05-10T07:06:55.394Z,985.62
2023-05-10T07:07:55.416Z,985.68
2023-05-10T07:08:55.383Z,985.63
2023-05-10T07:09:55.357Z,985.66
2023-05-10T07:10:55.311Z,985.70
2023-05-10T07:11:55.327Z,985.69
2023-05-10T07:12:55.372Z,985.65
2023-05-10T07:13:55.304Z,985.66
2023-05-10T07:14:55.285Z,985.66
2023-05-10T07:15:55.282Z,985.72
2023-05-10T07:16:55.409Z,985.72
2023-05-10T07:17:55.441Z,985.76
2023-05-10T07:18:55.446Z,985.69
2023-05-10T07:19:55.246Z,985.72
2023-05-10T07:20:55.273Z,985.79
2023-05-10T07:21:55.358Z,985.84
2023-05-10T07:22:55.229Z,985.80
2023-05-10T07:23:55.587Z,985.83
2023-05-10T07:24:55.221Z,985.78
2023-05-10T07:25:55.146Z,985.83
2023-05-10T07:26:55.222Z,985.81
2023-05-10T07:27:55.213Z,985.85
2023-05-10T07:28:55.144Z,985.88
2023-05-10T07:29:55.253Z,985.94
2023-05-10T07:30:55.241Z,985.88
2023-05-10T07:31:57.927Z,985.95
2023-05-10T07:32:55.180Z,985.92
2023-05-10T07:33:55.159Z,985.93
2023-05-10T07:34:55.072Z,985.92
2023-05-10T07:35:55.141Z,985.93
2023-05-10T07:36:55.112Z,985.86
2023-05-10T07:37:55.083Z,985.90
2023-05-10T07:38:55.043Z,985.91
2023-05-10T07:39:56.038Z,985.89
2023-05-10T07:40:55.018Z,985.91
2023-05-10T07:41:55.053Z,985.97
2023-05-10T07:42:55.017Z,986.01
2023-05-10T07:43:54.995Z,985.98
2023-05-10T07:44:54.977Z,986.03
2023-05-10T07:45:56.436Z,985.94
2023-05-10T07:46:55.949Z,986.00
2023-05-10T07:47:55.000Z,986.04
2023-05-10T07:48:55.149Z,986.09
2023-05-10T07:49:54.923Z,986.06
2023-05-10T07:50:54.949Z,986.14
2023-05-10T07:51:54.912Z,986.11
2023-05-10T07:52:55.046Z,986.17
2023-05-10T07:53:54.853Z,986.10
2023-05-10T07:54:54.870Z,986.10
2023-05-10T07:55:54.867Z,986.14
2023-05-10T07:56:54.877Z,986.14
2023-05-10T07:57:54.842Z,986.22
2023-05-10T07:58:54.869Z,986.24
2023-05-10T07:59:54.857Z,986.23
2023-05-10T08:00:54.914Z,986.22
2023-05-10T08:01:55.119Z,986.21
2023-05-10T08:02:54.842Z,986.11
2023-05-10T08:03:55.313Z,986.18
2023-05-10T08:04:55.840Z,986.16
2023-05-10T08:05:54.758Z,986.17
2023-05-10T08:06:54.687Z,986.16
2023-05-10T08:07:54.730Z,986.17
2023-05-10T08:08:54.717Z,986.23
2023-05-10T08:09:54.817Z,986.29
2023-05-10T08:10:55.585Z,986.30
2023-05-10T08:11:54.811Z,986.27
2023-05-10T08:12:55.582Z,986.21
2023-05-10T08:13:54.666Z,986.16
2023-05-10T08:14:55.136Z,986.20
2023-05-10T08:15:54.871Z,986.15
2023-05-10T08:16:54.825Z,986.18
2023-05-10T08:17:54.654Z,986.22
2023-05-10T08:18:54.643Z,986.23
2023-05-10T08:19:54.647Z,986.27
2023-05-10T08:20:54.712Z,986.29
2023-05-10T08:21:54.565Z,986.27
2023-05-10T08:22:55.120Z,986.26
2023-05-10T08:23:54.552Z,986.34
2023-05-10T08:24:55.579Z,986.26
2023-05-10T08:25:54.564Z,986.28
2023-05-10T08:26:55.930Z,986.36
2023-05-10T08:27:54.492Z,986.30
2023-05-10T08:28:54.537Z,986.33
2023-05-10T08:29:55.364Z,986.23
2023-05-10T08:30:55.047Z,986.23
2023-05-10T08:31:54.778Z,986.25
2023-05-10T08:32:54.411Z,986.26
2023-05-10T08:33:54.361Z,986.23
2023-05-10T08:34:54.420Z,986.26
2023-05-10T08:35:54.553Z,986.28
2023-05-10T08:36:54.672Z,986.23
2023-05-10T08:37:54.547Z,986.17
2023-05-10T08:38:54.623Z,986.21
2023-05-10T08:39:54.686Z,986.30
2023-05-10T08:40:55.020Z,986.26
2023-05-10T08:41:54.413Z,986.30
2023-05-10T08:42:54.358Z,986.32
2023-05-10T08:43:54.376Z,986.30
2023-05-10T08:44:54.525Z,986.31
2023-05-10T08:45:54.326Z,986.27
2023-05-10T08:46:54.420Z,986.29
2023-05-10T08:47:55.144Z,986.28
2023-05-10T08:48:54.540Z,986.33
2023-05-10T08:49:54.305Z,986.45
2023-05-10T08:50:54.305Z,986.34
2023-05-10T08:51:54.344Z,986.47
2023-05-10T08:52:54.284Z,986.50
2023-05-10T08:53:54.289Z,986.36
2023-05-10T08:54:54.186Z,986.37
2023-05-10T08:55:55.070Z,986.40
2023-05-10T08:56:54.190Z,986.39
2023-05-10T08:57:54.194Z,986.40
2023-05-10T08:58:54.144Z,986.42
2023-05-10T08:59:54.154Z,986.32
2023-05-10T09:00:54.184Z,986.37
2023-05-10T09:01:54.102Z,986.35
2023-05-10T09:02:54.235Z,986.36
2023-05-10T09:03:54.109Z,986.36
2023-05-10T09:04:54.154Z,986.31
2023-05-10T09:05:54.169Z,986.37
2023-05-10T09:06:54.089Z,986.40
2023-05-10T09:07:54.106Z,986.44
2023-05-10T09:08:54.058Z,986.42
2023-05-10T09:09:54.152Z,986.49
2023-05-10T09:10:54.042Z,986.50
2023-05-10T09:11:54.005Z,986.48
2023-05-10T09:12:54.124Z,986.53
2023-05-10T09:13:54.106Z,986.47
2023-05-10T09:14:54.084Z,986.61
2023-05-10T09:15:54.979Z,986.54
2023-05-10T09:16:54.049Z,986.56
2023-05-10T09:17:54.011Z,986.40
2023-05-10T09:18:54.002Z,986.54
2023-05-10T09:19:53.897Z,986.43
2023-05-10T09:20:54.052Z,986.43
2023-05-10T09:21:53.980Z,986.43
2023-05-10T09:22:54.013Z,986.52
2023-05-10T09:24:27.353Z,986.49
2023-05-10T09:24:54.054Z,986.49
2023-05-10T09:25:53.913Z,986.54
2023-05-10T09:26:54.910Z,986.50
2023-05-10T09:27:53.822Z,986.43
2023-05-10T09:28:53.849Z,986.48
2023-05-10T09:29:54.010Z,986.53
2023-05-10T09:30:53.993Z,986.55
2023-05-10T09:31:53.969Z,986.59
2023-05-10T09:32:53.854Z,986.55
2023-05-10T09:33:53.785Z,986.60
2023-05-10T09:34:53.767Z,986.62
2023-05-10T09:35:53.860Z,986.60
2023-05-10T09:36:53.791Z,986.58
2023-05-10T09:37:53.763Z,986.56
2023-05-10T09:38:53.984Z,986.54
2023-05-10T09:39:53.720Z,986.50
2023-05-10T09:40:53.723Z,986.51
2023-05-10T09:41:53.699Z,986.51
2023-05-10T09:42:53.694Z,986.51
2023-05-10T09:43:53.646Z,986.51
2023-05-10T09:44:53.644Z,986.48
2023-05-10T09:45:53.726Z,986.52
2023-05-10T09:46:53.678Z,986.55
2023-05-10T09:47:53.740Z,986.56
2023-05-10T09:48:53.649Z,986.52
2023-05-10T09:49:54.482Z,986.50
2023-05-10T09:50:53.641Z,986.60
2023-05-10T09:51:53.611Z,986.63
2023-05-10T09:52:53.569Z,986.61
2023-05-10T09:53:53.606Z,986.68
2023-05-10T09:54:53.587Z,986.61
2023-05-10T09:55:54.457Z,986.67
2023-05-10T09:56:53.548Z,986.63
2023-05-10T09:57:53.639Z,986.64
2023-05-10T09:58:53.548Z,986.63
2023-05-10T09:59:53.519Z,986.62
2023-05-10T10:00:53.492Z,986.63
2023-05-10T10:01:53.522Z,986.66
2023-05-10T10:02:53.789Z,986.70
2023-05-10T10:03:53.496Z,986.71
2023-05-10T10:04:53.487Z,986.81
2023-05-10T10:05:53.445Z,986.86
2023-05-10T10:06:53.397Z,986.69
2023-05-10T10:07:53.508Z,986.77
2023-05-10T10:08:55.609Z,986.74
2023-05-10T10:09:53.905Z,986.70
2023-05-10T10:10:53.342Z,986.60
2023-05-10T10:11:54.564Z,986.63
2023-05-10T10:12:53.373Z,986.59
2023-05-10T10:13:53.509Z,986.64
2023-05-10T10:14:53.351Z,986.67
2023-05-10T10:15:53.399Z,986.62
2023-05-10T10:17:05.889Z,986.66
2023-05-10T10:17:55.465Z,986.62
2023-05-10T10:18:53.332Z,986.56
2023-05-10T10:19:53.282Z,986.65
2023-05-10T10:20:53.366Z,986.62
2023-05-10T10:21:53.236Z,986.68
2023-05-10T10:22:53.276Z,986.72
2023-05-10T10:23:53.262Z,986.72
2023-05-10T10:24:53.202Z,986.65
2023-05-10T10:25:53.153Z,986.65
2023-05-10T10:26:53.173Z,986.61
2023-05-10T10:27:53.549Z,986.68
2023-05-10T10:28:53.190Z,986.57
2023-05-10T10:29:53.189Z,986.59
2023-05-10T10:30:53.117Z,986.56
2023-05-10T10:31:53.349Z,986.61
2023-05-10T10:32:53.660Z,986.61
2023-05-10T10:33:53.160Z,986.48
2023-05-10T10:34:53.139Z,986.52
2023-05-10T10:35:53.126Z,986.60
2023-05-10T10:36:53.129Z,986.45
2023-05-10T10:37:53.243Z,986.53
2023-05-10T10:38:53.066Z,986.58
2023-05-10T10:39:53.080Z,986.49
2023-05-10T10:40:53.031Z,986.49
2023-05-10T10:41:53.016Z,986.46
2023-05-10T10:42:53.035Z,986.54
2023-05-10T10:43:53.066Z,986.52
2023-05-10T10:44:53.011Z,986.49
2023-05-10T10:45:52.967Z,986.52
2023-05-10T10:46:53.063Z,986.49
2023-05-10T10:47:53.024Z,986.49
2023-05-10T10:48:53.003Z,986.46
2023-05-10T10:49:53.007Z,986.53
2023-05-10T10:50:52.971Z,986.30
2023-05-10T10:51:52.891Z,986.40
2023-05-10T10:52:52.970Z,986.35
2023-05-10T10:53:52.941Z,986.36
2023-05-10T10:54:52.962Z,986.37
2023-05-10T10:55:53.112Z,986.41
2023-05-10T10:56:52.931Z,986.36
2023-05-10T10:57:53.099Z,986.36
2023-05-10T10:58:52.932Z,986.33
2023-05-10T10:59:52.855Z,986.37
2023-05-10T11:00:52.831Z,986.38
2023-05-10T11:01:52.849Z,986.33
2023-05-10T11:02:52.925Z,986.34
2023-05-10T11:03:52.850Z,986.32
2023-05-10T11:04:52.821Z,986.38
2023-05-10T11:05:52.795Z,986.30
2023-05-10T11:06:52.733Z,986.38
2023-05-10T11:07:52.739Z,986.30
2023-05-10T11:08:52.762Z,986.35
2023-05-10T11:09:52.809Z,986.38
2023-05-10T11:10:52.762Z,986.41
2023-05-10T11:11:52.780Z,986.39
2023-05-10T11:12:52.705Z,986.39
2023-05-10T11:13:52.681Z,986.42
2023-05-10T11:14:52.755Z,986.37
2023-05-10T11:15:52.748Z,986.37
2023-05-10T11:16:52.686Z,986.38
2023-05-10T11:17:52.668Z,986.37
2023-05-10T11:18:52.720Z,986.38
2023-05-10T11:19:52.667Z,986.35
2023-05-10T11:20:52.654Z,986.39
2023-05-10T11:21:52.576Z,986.38
2023-05-10T11:22:52.617Z,986.41
2023-05-10T11:23:52.540Z,986.34
2023-05-10T11:24:52.575Z,986.45
2023-05-10T11:25:52.650Z,986.44
2023-05-10T11:26:52.634Z,986.41
2023-05-10T11:27:52.564Z,986.42
2023-05-10T11:28:52.570Z,986.44
2023-05-10T11:29:52.505Z,986.44
2023-05-10T11:30:52.557Z,986.41
2023-05-10T11:31:52.561Z,986.48
2023-05-10T11:32:52.531Z,986.50
2023-05-10T11:33:52.447Z,986.51
2023-05-10T11:34:52.553Z,986.51
2023-05-10T11:35:52.500Z,986.48
2023-05-10T11:36:52.433Z,986.54
2023-05-10T11:37:52.511Z,986.55
2023-05-10T11:38:52.468Z,986.54
2023-05-10T11:39:52.452Z,986.53
2023-05-10T11:40:52.367Z,986.50
2023-05-10T11:41:52.393Z,986.43
2023-05-10T11:42:52.426Z,986.49
2023-05-10T11:43:52.378Z,986.48
2023-05-10T11:44:52.437Z,986.55
2023-05-10T11:45:52.349Z,986.46
2023-05-10T11:46:52.415Z,986.54
2023-05-10T11:47:52.374Z,986.57
2023-05-10T11:48:52.323Z,986.54
2023-05-10T11:49:52.263Z,986.60
2023-05-10T11:50:52.520Z,986.53
2023-05-10T11:51:52.238Z,986.59
2023-05-10T11:52:52.261Z,986.63
2023-05-10T11:53:52.308Z,986.55
2023-05-10T11:54:52.929Z,986.58
2023-05-10T11:55:52.695Z,986.63
2023-05-10T11:56:52.292Z,986.60
2023-05-10T11:57:52.311Z,986.58
2023-05-10T11:58:52.323Z,986.61
2023-05-10T11:59:53.009Z,986.61
2023-05-10T12:00:52.168Z,986.66
2023-05-10T12:01:52.201Z,986.63
2023-05-10T12:02:52.196Z,986.67
2023-05-10T12:03:52.223Z,986.63
2023-05-10T12:04:52.374Z,986.68
2023-05-10T12:05:53.073Z,986.72
2023-05-10T12:06:52.145Z,986.68
2023-05-10T12:07:52.099Z,986.71
2023-05-10T12:08:52.125Z,986.75
2023-05-10T12:09:52.146Z,986.70
2023-05-10T12:10:52.052Z,986.82
2023-05-10T12:11:52.087Z,986.80
2023-05-10T12:12:52.110Z,986.83
2023-05-10T12:13:52.033Z,986.82
2023-05-10T12:14:52.086Z,986.88
2023-05-10T12:15:52.040Z,986.86
2023-05-10T12:16:51.990Z,986.86
2023-05-10T12:17:52.059Z,986.83
2023-05-10T12:18:52.095Z,986.81
2023-05-10T12:20:24.369Z,986.86
2023-05-10T12:20:52.220Z,986.80
2023-05-10T12:21:52.135Z,986.82
2023-05-10T12:22:51.999Z,986.84
2023-05-10T12:23:52.001Z,986.83
2023-05-10T12:24:52.004Z,986.78
2023-05-10T12:25:52.009Z,986.83
2023-05-10T12:26:52.076Z,986.85
2023-05-10T12:27:51.861Z,986.83